Time;durP1;ratioP1;P1;durP2;ratioP2;P2;SDS_P1;SDS_P2;PMS_P1;PMS_P2;Temp;Humidity;BMP_temperature;BMP_pressure;BME280_temperature;BME280_humidity;BME280_pressure;Samples;Min_cycle;Max_cycle;Signal;HPM_P1;HPM_P2
2022/11/04 00:01:43;;;;;;;10.30;7.38;;;11.30;99.90;;;;;;5136774;27;20043;-80
2022/11/04 00:04:09;;;;;;;8.25;6.53;;;11.20;99.90;;;;;;5136703;27;20088;-80
2022/11/04 00:06:36;;;;;;;8.60;6.30;;;11.20;99.90;;;;;;5136474;27;20130;-81
2022/11/04 00:09:03;;;;;;;7.43;5.88;;;11.10;99.90;;;;;;5136689;27;20079;-80
2022/11/04 00:14:14;;;;;;;9.27;5.90;;;11.10;99.90;;;;;;5136641;27;20055;-80
2022/11/04 00:19:24;;;;;;;5.20;3.67;;;11.00;99.90;;;;;;5136710;27;20082;-80
2022/11/04 00:30:09;;;;;;;2.53;1.80;;;10.80;99.90;;;;;;5135530;27;20043;-80
2022/11/04 00:35:20;;;;;;;1.58;1.42;;;10.70;99.90;;;;;;5136249;27;20083;-80
2022/11/04 00:37:45;;;;;;;2.37;1.70;;;10.60;99.90;;;;;;5136167;27;20046;-81
2022/11/04 00:40:13;;;;;;;3.65;1.42;;;10.60;99.90;;;;;;5136294;27;20043;-79
2022/11/04 00:42:39;;;;;;;1.73;1.30;;;10.60;99.90;;;;;;5136278;27;20039;-81
2022/11/04 00:45:06;;;;;;;1.67;1.20;;;10.60;99.90;;;;;;5135029;27;20043;-79
2022/11/04 00:47:31;;;;;;;2.25;1.20;;;10.60;99.90;;;;;;5136170;27;20050;-80
2022/11/04 00:49:57;;;;;;;2.22;1.30;;;10.50;99.90;;;;;;5135860;27;20039;-80
2022/11/04 00:52:22;;;;;;;2.50;1.40;;;10.50;99.90;;;;;;5135810;27;20118;-80
2022/11/04 00:54:48;;;;;;;2.05;1.25;;;10.50;99.90;;;;;;5135936;27;20035;-81
2022/11/04 00:57:14;;;;;;;1.77;1.25;;;10.50;99.90;;;;;;5134412;27;20043;-80
2022/11/04 00:59:40;;;;;;;1.75;1.30;;;10.50;99.90;;;;;;5135776;27;20066;-81
2022/11/04 01:02:07;;;;;;;2.80;1.27;;;10.50;99.90;;;;;;5135376;27;20052;-80
2022/11/04 01:04:33;;;;;;;2.75;1.27;;;10.40;99.90;;;;;;5135479;27;20039;-80
2022/11/04 01:06:59;;;;;;;1.08;0.98;;;10.40;99.90;;;;;;5135922;27;20050;-81
2022/11/04 01:09:25;;;;;;;1.65;1.20;;;10.40;99.90;;;;;;5135480;27;20510;-80
2022/11/04 01:11:51;;;;;;;2.25;1.23;;;10.40;99.90;;;;;;5135495;27;20039;-80
2022/11/04 01:14:17;;;;;;;4.55;1.00;;;10.50;99.90;;;;;;5135478;27;20181;-81
2022/11/04 01:16:42;;;;;;;2.10;1.23;;;10.40;99.90;;;;;;5135234;27;20089;-79
2022/11/04 01:19:09;;;;;;;4.13;1.42;;;10.30;99.90;;;;;;5134212;27;20106;-79
2022/11/04 01:21:34;;;;;;;2.53;1.30;;;10.30;99.90;;;;;;5135349;27;20050;-80
2022/11/04 01:24:00;;;;;;;2.25;1.38;;;10.30;99.90;;;;;;5134362;27;20047;-81
2022/11/04 01:26:27;;;;;;;1.60;1.20;;;10.30;99.90;;;;;;5135358;27;20499;-81
2022/11/04 01:28:54;;;;;;;1.75;1.30;;;10.30;99.90;;;;;;5135364;27;20463;-80
2022/11/04 01:31:23;;;;;;;2.42;1.20;;;10.20;99.90;;;;;;5135203;27;20085;-79
2022/11/04 01:33:50;;;;;;;4.13;1.35;;;10.60;99.90;;;;;;5135077;27;20068;-80
2022/11/04 01:36:17;;;;;;;2.33;1.35;;;10.20;99.90;;;;;;5135446;27;20143;-80
2022/11/04 01:38:42;;;;;;;2.17;1.30;;;10.20;99.90;;;;;;5135328;27;20054;-80
2022/11/04 01:41:20;;;;;;;3.22;1.20;;;10.10;99.90;;;;;;5135136;27;20478;-80
2022/11/04 01:43:54;;;;;;;1.70;1.30;;;10.10;99.90;;;;;;5133143;27;20050;-81
2022/11/04 01:46:46;;;;;;;1.85;1.20;;;10.10;99.90;;;;;;5134269;27;20039;-80
2022/11/04 01:49:32;;;;;;;1.77;1.20;;;10.10;99.90;;;;;;5134947;27;20050;-80
2022/11/04 01:52:11;;;;;;;2.47;1.30;;;10.10;99.90;;;;;;5134949;27;20043;-80
2022/11/04 01:54:39;;;;;;;2.03;1.40;;;10.10;99.90;;;;;;5134663;27;20047;-80
2022/11/04 01:57:10;;;;;;;2.17;1.25;;;10.10;99.90;;;;;;5134722;27;20428;-80
2022/11/04 01:59:39;;;;;;;3.78;1.80;;;10.10;99.90;;;;;;5134694;27;20444;-81
2022/11/04 02:02:06;;;;;;;2.40;1.50;;;10.10;99.90;;;;;;5134609;27;20339;-80
2022/11/04 02:04:32;;;;;;;6.13;1.80;;;10.10;99.90;;;;;;5134861;27;20047;-80
2022/11/04 02:07:08;;;;;;;5.22;2.33;;;10.20;99.90;;;;;;5134731;27;20040;-81
2022/11/04 02:09:35;;;;;;;3.92;1.90;;;10.20;99.90;;;;;;5135141;27;20087;-81
2022/11/04 02:14:47;;;;;;;6.03;2.53;;;10.20;99.90;;;;;;5134735;28;20055;-80
2022/11/04 02:17:30;;;;;;;4.55;2.50;;;10.30;99.90;;;;;;5134471;27;20049;-80
2022/11/04 02:20:13;;;;;;;3.65;2.38;;;10.30;99.90;;;;;;5135435;27;20377;-80
2022/11/04 02:23:00;;;;;;;5.93;3.03;;;10.30;99.90;;;;;;5135009;28;20051;-80
2022/11/04 02:25:44;;;;;;;5.18;3.45;;;10.30;99.90;;;;;;5133510;28;20043;-80
2022/11/04 02:28:13;;;;;;;10.00;3.50;;;10.30;99.90;;;;;;5134610;28;20066;-81
2022/11/04 02:30:49;;;;;;;7.35;4.22;;;10.40;99.90;;;;;;5134952;28;20489;-81
2022/11/04 02:33:45;;;;;;;5.78;4.30;;;10.30;99.90;;;;;;5134924;27;20398;-80
2022/11/04 02:36:38;;;;;;;5.15;4.55;;;10.30;99.90;;;;;;5133327;28;20068;-82
2022/11/04 02:39:38;;;;;;;9.65;4.55;;;10.40;99.90;;;;;;5133594;28;20054;-80
2022/11/04 02:42:38;;;;;;;7.70;5.10;;;10.40;99.90;;;;;;5134518;27;20058;-80
2022/11/04 02:45:28;;;;;;;9.48;5.15;;;10.40;99.90;;;;;;5134695;27;20376;-81
2022/11/04 02:48:02;;;;;;;9.40;4.80;;;10.40;99.90;;;;;;5133230;28;20386;-80
2022/11/04 02:50:43;;;;;;;8.82;5.05;;;10.40;99.90;;;;;;5134444;27;20040;-80
2022/11/04 02:53:22;;;;;;;8.20;4.85;;;10.40;99.90;;;;;;5134309;27;20051;-82
2022/11/04 02:55:52;;;;;;;9.10;5.05;;;10.40;99.90;;;;;;5137551;27;20092;-80
2022/11/04 02:58:29;;;;;;;10.45;5.22;;;10.40;99.90;;;;;;5138107;27;20035;-80
2022/11/04 03:00:56;;;;;;;9.98;5.18;;;10.40;99.90;;;;;;5138146;27;20088;-80
2022/11/04 03:03:26;;;;;;;11.10;5.97;;;10.50;99.90;;;;;;5138013;27;20051;-80
2022/11/04 03:05:54;;;;;;;6.88;5.30;;;10.40;99.90;;;;;;5138353;27;20047;-80
2022/11/04 03:08:32;;;;;;;7.03;4.93;;;10.60;99.90;;;;;;5138101;27;20042;-81
2022/11/04 03:11:05;;;;;;;9.05;4.65;;;10.60;99.90;;;;;;5138247;27;20047;-81
2022/11/04 03:13:37;;;;;;;5.47;4.25;;;10.40;99.90;;;;;;5138239;27;20047;-80
2022/11/04 03:16:10;;;;;;;5.30;4.00;;;10.30;99.90;;;;;;5137983;27;20047;-81
2022/11/04 03:19:09;;;;;;;5.93;4.65;;;10.30;99.90;;;;;;5137856;27;20566;-81
2022/11/04 03:21:41;;;;;;;7.63;4.10;;;10.30;99.90;;;;;;5105197;27;20055;-80
2022/11/04 03:24:07;;;;;;;7.63;4.25;;;10.30;99.90;;;;;;5137546;27;20491;-81
2022/11/04 03:26:53;;;;;;;7.65;4.22;;;10.30;99.90;;;;;;5137797;27;20096;-82
2022/11/04 03:29:33;;;;;;;7.70;4.85;;;10.60;99.90;;;;;;5137505;27;20062;-80
2022/11/04 03:32:28;;;;;;;5.18;3.85;;;10.20;99.90;;;;;;5137530;27;20047;-81
2022/11/04 03:34:54;;;;;;;5.72;3.75;;;10.20;99.90;;;;;;5137845;27;20047;-81
2022/11/04 03:37:20;;;;;;;4.25;3.45;;;10.70;99.90;;;;;;5137717;27;20047;-79
2022/11/04 03:39:46;;;;;;;3.50;3.00;;;10.20;99.90;;;;;;5137543;27;20585;-80
2022/11/04 03:42:19;;;;;;;4.32;3.00;;;10.20;99.90;;;;;;5137470;27;20075;-81
2022/11/04 03:44:55;;;;;;;4.82;3.00;;;10.20;99.90;;;;;;5137504;27;20043;-80
2022/11/04 03:47:26;;;;;;;6.75;3.67;;;10.60;99.90;;;;;;5137083;27;20039;-80
2022/11/04 03:50:01;;;;;;;5.10;3.78;;;10.10;99.90;;;;;;5136049;27;20031;-80
2022/11/04 03:52:27;;;;;;;5.25;3.65;;;10.10;99.90;;;;;;5137086;27;20058;-81
2022/11/04 03:54:52;;;;;;;3.90;3.35;;;10.10;99.90;;;;;;5136124;27;20039;-81
2022/11/04 03:57:29;;;;;;;4.70;3.40;;;10.10;99.90;;;;;;5135813;27;20462;-81
2022/11/04 04:00:09;;;;;;;4.75;3.17;;;10.10;99.90;;;;;;5136966;27;20093;-80
2022/11/04 04:02:51;;;;;;;6.05;2.72;;;10.10;99.90;;;;;;5136104;27;20043;-80
2022/11/04 04:05:40;;;;;;;3.30;2.60;;;10.60;99.90;;;;;;5136787;27;20135;-82
2022/11/04 04:08:18;;;;;;;5.15;2.22;;;10.00;99.90;;;;;;5135382;27;20099;-80
2022/11/04 04:10:44;;;;;;;;;;;10.00;99.90;;;;;;5137192;27;20088;-80
2022/11/04 04:13:21;;;;;;;3.63;1.90;;;10.20;99.90;;;;;;5136661;27;19927;-80
2022/11/04 04:15:52;;;;;;;3.65;2.50;;;9.90;99.90;;;;;;5136675;27;20054;-80
2022/11/04 04:18:43;;;;;;;3.13;1.70;;;9.90;99.90;;;;;;5135229;27;20043;-82
2022/11/04 04:21:13;;;;;;;2.35;1.52;;;9.90;99.90;;;;;;5094062;27;20051;-82
2022/11/04 04:29:10;;;;;;;1.60;1.25;;;9.70;99.90;;;;;;5136308;27;20062;-80
2022/11/04 04:31:51;;;;;;;1.60;1.50;;;9.70;99.90;;;;;;5136324;27;20066;-81
2022/11/04 04:34:22;;;;;;;2.15;1.50;;;9.70;99.90;;;;;;5136544;27;20035;-80
2022/11/04 04:37:10;;;;;;;1.80;1.40;;;10.10;99.90;;;;;;5136135;27;20484;-82
2022/11/04 04:45:35;;;;;;;2.40;1.40;;;9.60;99.90;;;;;;5136076;27;20046;-80
2022/11/04 04:48:01;;;;;;;1.73;1.40;;;9.60;99.90;;;;;;5136475;27;20074;-82
2022/11/04 04:50:30;;;;;;;2.78;1.52;;;9.50;99.90;;;;;;5135108;27;20058;-81
2022/11/04 04:52:58;;;;;;;2.95;1.40;;;9.70;99.90;;;;;;5135845;27;20039;-80
2022/11/04 04:55:24;;;;;;;2.97;1.50;;;9.60;99.90;;;;;;5135178;27;20382;-81
2022/11/04 04:57:50;;;;;;;1.70;1.50;;;9.60;99.90;;;;;;5135863;27;20043;-81
2022/11/04 05:00:18;;;;;;;2.15;1.60;;;9.60;99.90;;;;;;5135616;27;20501;-82
2022/11/04 05:02:44;;;;;;;5.20;1.70;;;9.60;99.90;;;;;;5135654;27;20079;-82
2022/11/04 05:05:14;;;;;;;2.50;1.50;;;9.70;99.90;;;;;;5135978;27;20112;-82
2022/11/04 05:07:45;;;;;;;2.97;1.52;;;9.60;99.90;;;;;;5135664;27;20099;-81
2022/11/04 05:10:15;;;;;;;2.92;1.50;;;10.10;99.90;;;;;;5135527;27;20043;-80
2022/11/04 05:15:26;;;;;;;1.63;1.52;;;9.60;99.90;;;;;;5135419;27;20051;-81
2022/11/04 05:17:54;;;;;;;1.98;1.70;;;9.60;99.90;;;;;;5135171;27;20142;-81
2022/11/04 05:20:23;;;;;;;3.35;1.70;;;9.60;99.90;;;;;;5134192;27;20047;-80
2022/11/04 05:22:49;;;;;;;2.88;2.00;;;9.60;99.90;;;;;;5135321;27;20078;-82
2022/11/04 05:25:15;;;;;;;2.47;1.70;;;9.60;99.90;;;;;;5135296;27;20035;-81
2022/11/04 05:27:40;;;;;;;3.22;1.80;;;9.50;99.90;;;;;;5135235;27;20035;-81
2022/11/04 05:30:06;;;;;;;4.25;1.88;;;9.50;99.90;;;;;;5134773;27;20123;-81
2022/11/04 05:32:35;;;;;;;3.03;1.77;;;9.40;99.90;;;;;;5135287;27;20043;-81
2022/11/04 05:35:01;;;;;;;2.88;1.63;;;9.40;99.90;;;;;;5135113;27;20043;-82
2022/11/04 05:37:26;;;;;;;2.00;1.58;;;9.30;99.90;;;;;;5134985;27;20416;-80
2022/11/04 05:39:52;;;;;;;4.13;1.90;;;9.70;99.90;;;;;;5135188;27;20066;-83
2022/11/04 05:42:18;;;;;;;4.57;1.63;;;9.50;99.90;;;;;;5134898;27;20047;-81
2022/11/04 05:44:43;;;;;;;1.75;1.50;;;9.30;99.90;;;;;;5134906;27;20179;-80
2022/11/04 05:47:09;;;;;;;2.13;1.35;;;9.60;99.90;;;;;;5133978;27;20043;-81
2022/11/04 05:49:34;;;;;;;4.43;1.63;;;9.10;99.90;;;;;;5134829;27;20050;-80
2022/11/04 05:52:02;;;;;;;3.75;1.48;;;9.10;99.90;;;;;;5135046;27;20125;-81
2022/11/04 05:54:28;;;;;;;2.83;1.50;;;9.10;99.90;;;;;;5134901;27;20039;-80
2022/11/04 05:56:57;;;;;;;3.45;1.52;;;9.00;99.90;;;;;;5133505;27;20062;-81
2022/11/04 05:59:22;;;;;;;3.70;1.65;;;9.00;99.90;;;;;;5133633;27;20507;-81
2022/11/04 06:01:49;;;;;;;4.47;1.60;;;8.90;99.90;;;;;;5134813;28;20112;-81
2022/11/04 06:04:19;;;;;;;4.87;1.60;;;9.30;99.90;;;;;;5134925;27;20402;-79
2022/11/04 06:06:45;;;;;;;2.60;1.63;;;8.80;99.90;;;;;;5134541;27;20035;-82
2022/11/04 06:09:10;;;;;;;3.38;1.25;;;8.80;99.90;;;;;;5134689;28;20477;-82
2022/11/04 06:11:37;;;;;;;1.73;1.40;;;9.00;99.90;;;;;;5134396;28;20127;-85
2022/11/04 06:14:03;;;;;;;1.63;1.30;;;8.70;99.90;;;;;;5116580;28;20482;-81
2022/11/04 06:16:29;;;;;;;2.08;1.52;;;8.60;99.90;;;;;;5133422;28;20048;-84
2022/11/04 06:18:55;;;;;;;6.75;1.83;;;8.60;99.90;;;;;;5133430;28;20108;-76
2022/11/04 06:21:31;;;;;;;4.90;1.95;;;8.60;99.90;;;;;;5134725;28;20039;-79
2022/11/04 06:23:58;;;;;;;1.83;1.33;;;8.60;99.90;;;;;;5134588;27;20031;-77
2022/11/04 06:26:29;;;;;;;2.75;1.52;;;9.10;99.90;;;;;;5134561;27;20046;-77
2022/11/04 06:28:56;;;;;;;1.98;1.60;;;8.60;99.90;;;;;;5134331;27;20064;-77
2022/11/04 06:31:22;;;;;;;2.10;1.70;;;8.60;99.90;;;;;;5138484;27;20069;-76
2022/11/04 06:33:47;;;;;;;7.38;2.00;;;8.60;99.90;;;;;;5138546;27;20035;-77
2022/11/04 06:36:14;;;;;;;2.35;2.00;;;8.70;99.90;;;;;;5138435;27;20061;-79
2022/11/04 06:38:40;;;;;;;;;;;9.20;99.90;;;;;;5138787;27;20160;-76
2022/11/04 06:41:09;;;;;;;4.30;2.08;;;8.80;99.90;;;;;;5138425;27;19962;-77
2022/11/04 06:43:35;;;;;;;4.72;2.35;;;8.80;99.90;;;;;;5138432;27;20092;-77
2022/11/04 06:46:01;;;;;;;3.85;2.78;;;8.80;99.90;;;;;;5137975;27;20043;-79
2022/11/04 06:48:29;;;;;;;4.03;2.33;;;8.80;99.90;;;;;;5138458;27;20378;-79
2022/11/04 06:50:56;;;;;;;3.92;2.58;;;8.80;99.90;;;;;;5138218;27;20042;-78
2022/11/04 06:53:22;;;;;;;4.18;2.55;;;8.80;99.90;;;;;;5138363;27;20043;-76
2022/11/04 06:55:47;;;;;;;5.30;2.70;;;8.80;99.90;;;;;;5138551;27;20054;-77
2022/11/04 06:58:13;;;;;;;5.97;2.65;;;8.80;99.90;;;;;;5138398;27;20037;-82
2022/11/04 07:00:39;;;;;;;2.78;2.28;;;8.80;99.90;;;;;;5137447;27;20073;-81
2022/11/04 07:03:04;;;;;;;4.97;2.40;;;8.80;99.90;;;;;;5138296;27;20081;-79
2022/11/04 07:05:32;;;;;;;3.53;2.22;;;8.70;99.90;;;;;;5138272;27;20142;-78
2022/11/04 07:07:58;;;;;;;3.80;2.15;;;8.70;99.90;;;;;;5137864;27;20035;-79
2022/11/04 07:10:23;;;;;;;6.15;2.53;;;8.70;99.90;;;;;;5138271;27;20035;-80
2022/11/04 07:12:49;;;;;;;5.53;2.20;;;8.70;99.90;;;;;;5137799;27;20268;-79
2022/11/04 07:15:14;;;;;;;5.55;2.95;;;8.70;99.90;;;;;;5137667;27;20096;-79
2022/11/04 07:17:40;;;;;;;4.95;2.40;;;8.60;99.90;;;;;;5138014;27;20481;-79
2022/11/04 07:20:06;;;;;;;3.08;2.28;;;8.70;99.90;;;;;;5137496;27;20054;-81
2022/11/04 07:22:32;;;;;;;4.63;2.38;;;8.70;99.90;;;;;;5119459;27;20046;-79
2022/11/04 07:24:57;;;;;;;3.10;2.38;;;8.70;99.90;;;;;;5138040;27;20055;-80
2022/11/04 07:27:23;;;;;;;4.15;2.50;;;8.70;99.90;;;;;;5137341;27;20039;-82
2022/11/04 07:29:48;;;;;;;5.10;2.80;;;9.20;99.90;;;;;;5137539;27;20104;-80
2022/11/04 07:32:14;;;;;;;5.35;2.80;;;8.70;99.90;;;;;;5137618;27;20092;-78
2022/11/04 07:34:40;;;;;;;4.40;2.72;;;8.70;99.90;;;;;;5137454;27;20501;-80
2022/11/04 07:37:05;;;;;;;4.47;3.33;;;8.70;99.90;;;;;;5136175;27;20098;-79
2022/11/04 07:39:31;;;;;;;9.73;4.13;;;8.60;99.90;;;;;;5136656;27;20121;-80
2022/11/04 07:41:56;;;;;;;9.35;4.40;;;8.60;99.90;;;;;;5136385;27;20079;-79
2022/11/04 07:44:22;;;;;;;8.80;4.80;;;8.60;99.90;;;;;;5137270;27;20456;-80
2022/11/04 07:46:48;;;;;;;8.95;5.18;;;8.70;99.90;;;;;;5137594;27;20082;-79
2022/11/04 07:49:14;;;;;;;10.32;5.32;;;8.70;99.90;;;;;;5137370;27;20047;-78
2022/11/04 07:51:40;;;;;;;9.83;6.40;;;8.70;99.90;;;;;;5135549;27;20047;-80
2022/11/04 07:54:05;;;;;;;11.77;6.38;;;8.80;99.90;;;;;;5136060;27;20046;-79
2022/11/04 07:56:31;;;;;;;9.90;6.97;;;8.80;99.90;;;;;;5136967;27;20046;-80
2022/11/04 07:58:56;;;;;;;15.63;6.40;;;8.80;99.90;;;;;;5136958;27;20078;-76
2022/11/04 08:01:23;;;;;;;14.25;7.85;;;8.90;99.90;;;;;;5136926;27;20047;-80
2022/11/04 08:03:50;;;;;;;15.32;7.93;;;8.90;99.90;;;;;;5136931;27;20087;-79
2022/11/04 08:06:17;;;;;;;12.95;8.20;;;9.00;99.90;;;;;;5136763;27;20043;-79
2022/11/04 08:08:43;;;;;;;13.30;7.68;;;9.10;99.90;;;;;;5136969;27;20039;-79
2022/11/04 08:11:17;;;;;;;16.08;8.45;;;9.10;99.90;;;;;;5136814;27;20096;-79
2022/11/04 08:13:44;;;;;;;13.70;8.73;;;9.20;99.90;;;;;;5136736;27;20054;-79
2022/11/04 08:16:15;;;;;;;17.35;9.48;;;9.20;99.90;;;;;;5136520;27;20043;-79
2022/11/04 08:18:42;;;;;;;17.55;10.05;;;9.30;99.90;;;;;;5136365;27;20047;-79
2022/11/04 08:21:08;;;;;;;15.38;10.85;;;9.40;99.90;;;;;;5136321;27;20047;-83
2022/11/04 08:23:33;;;;;;;17.03;10.57;;;9.60;99.90;;;;;;5136446;27;20483;-83
2022/11/04 08:25:59;;;;;;;19.15;10.98;;;9.60;99.90;;;;;;5136337;27;20283;-85
2022/11/04 08:28:26;;;;;;;17.77;10.43;;;9.60;99.90;;;;;;5135605;27;20051;-81
2022/11/04 08:30:57;;;;;;;18.80;10.80;;;9.60;99.90;;;;;;5135060;27;20047;-80
2022/11/04 08:33:25;;;;;;;16.33;10.75;;;10.00;99.90;;;;;;5135318;27;20043;-78
2022/11/04 08:35:51;;;;;;;19.15;11.05;;;9.60;99.90;;;;;;5136067;27;20089;-81
2022/11/04 08:38:18;;;;;;;14.73;10.00;;;9.50;99.90;;;;;;5136068;27;20130;-80
2022/11/04 08:40:44;;;;;;;15.23;10.25;;;9.60;99.90;;;;;;5136042;27;20039;-78
2022/11/04 08:43:10;;;;;;;15.02;10.35;;;9.60;99.90;;;;;;5135811;27;20096;-80
2022/11/04 08:45:44;;;;;;;21.88;11.43;;;9.70;99.90;;;;;;5135794;27;20039;-79
2022/11/04 08:48:10;;;;;;;17.88;10.60;;;9.70;99.90;;;;;;5130023;27;20551;-79
2022/11/04 08:50:36;;;;;;;17.15;10.35;;;9.80;99.90;;;;;;5115404;28;20039;-81
2022/11/04 08:53:03;;;;;;;17.67;11.05;;;9.90;99.90;;;;;;5114845;28;20487;-82
2022/11/04 08:55:30;;;;;;;;;;;9.90;99.90;;;;;;5115705;28;20054;-81
2022/11/04 08:57:56;;;;;;;23.38;11.30;;;10.40;99.90;;;;;;5114827;28;19926;-85
2022/11/04 09:00:21;;;;;;;16.67;11.50;;;9.90;99.90;;;;;;5115113;28;20039;-82
2022/11/04 09:02:47;;;;;;;22.17;11.73;;;10.10;99.90;;;;;;5113899;28;20044;-81
2022/11/04 09:05:14;;;;;;;21.98;11.82;;;10.00;99.90;;;;;;5114602;28;20038;-80
2022/11/04 09:07:41;;;;;;;20.80;12.40;;;10.00;99.90;;;;;;5114850;28;20055;-81
2022/11/04 09:10:08;;;;;;;21.15;11.27;;;10.50;99.90;;;;;;5115111;28;20102;-84
2022/11/04 09:12:34;;;;;;;14.50;10.10;;;10.10;99.90;;;;;;5114930;28;20447;-82
2022/11/04 09:14:59;;;;;;;18.52;9.95;;;10.20;99.90;;;;;;5113973;28;20082;-79
2022/11/04 09:17:25;;;;;;;17.65;11.20;;;10.20;99.90;;;;;;5114860;28;20050;-80
2022/11/04 09:19:50;;;;;;;17.50;10.73;;;10.20;99.90;;;;;;5114796;28;20039;-80
2022/11/04 09:22:16;;;;;;;18.60;12.27;;;10.10;99.90;;;;;;5114796;28;20581;-78
2022/11/04 09:24:42;;;;;;;21.40;11.27;;;10.10;99.90;;;;;;5114756;28;20047;-78
2022/11/04 09:27:08;;;;;;;17.38;11.55;;;10.10;99.90;;;;;;5115008;28;20369;-83
2022/11/04 09:29:35;;;;;;;21.00;12.47;;;10.10;99.90;;;;;;5096197;28;20055;-80
2022/11/04 09:32:01;;;;;;;19.98;12.13;;;10.10;99.90;;;;;;5114618;28;20048;-81
2022/11/04 09:34:27;;;;;;;20.30;12.50;;;10.20;99.90;;;;;;5114596;28;20181;-80
2022/11/04 09:36:56;;;;;;;19.73;12.63;;;10.20;99.90;;;;;;5114931;28;20491;-85
2022/11/04 09:39:25;;;;;;;23.35;12.43;;;10.30;99.90;;;;;;5114375;28;20520;-78
2022/11/04 09:42:04;;;;;;;21.30;13.18;;;10.30;99.90;;;;;;5114725;28;20123;-80
2022/11/04 09:44:50;;;;;;;23.67;13.80;;;10.40;99.90;;;;;;5114581;27;20055;-79
2022/11/04 09:47:17;;;;;;;23.55;13.55;;;10.50;99.90;;;;;;5114487;28;20096;-77
2022/11/04 09:49:47;;;;;;;24.70;12.80;;;10.60;99.90;;;;;;5114328;28;20058;-78
2022/11/04 09:52:21;;;;;;;23.75;14.23;;;10.70;99.90;;;;;;5113159;28;20039;-86
2022/11/04 09:54:58;;;;;;;24.83;14.02;;;10.70;99.90;;;;;;5096499;28;20058;-83
2022/11/04 09:57:24;;;;;;;24.75;14.30;;;10.70;99.90;;;;;;5112878;28;20391;-79
2022/11/04 09:59:51;;;;;;;24.20;14.13;;;10.80;99.90;;;;;;5114319;28;20047;-78
2022/11/04 10:02:30;;;;;;;23.33;14.30;;;10.80;99.90;;;;;;5114678;28;20628;-84
2022/11/04 10:05:18;;;;;;;26.77;15.50;;;10.80;99.90;;;;;;5113372;28;20048;-79
2022/11/04 10:08:12;;;;;;;26.98;15.20;;;10.80;99.90;;;;;;5114145;28;20031;-82
2022/11/04 10:11:09;;;;;;;27.48;15.43;;;10.70;99.90;;;;;;5113187;28;20089;-79
2022/11/04 10:13:45;;;;;;;25.27;14.77;;;10.70;99.90;;;;;;5122920;28;20097;-79
2022/11/04 10:16:28;;;;;;;24.02;14.52;;;10.70;99.90;;;;;;5114082;28;20039;-82
2022/11/04 10:18:59;;;;;;;26.17;15.45;;;10.70;99.90;;;;;;5113944;28;20507;-82
2022/11/04 10:22:03;;;;;;;29.15;17.30;;;10.80;99.90;;;;;;5114376;28;20043;-79
2022/11/04 10:24:51;;;;;;;26.48;14.80;;;10.90;99.90;;;;;;5113903;28;20087;-81
2022/11/04 10:27:27;;;;;;;28.90;15.80;;;11.00;99.90;;;;;;5096758;28;20391;-81
2022/11/04 10:30:00;;;;;;;23.52;15.40;;;11.10;99.90;;;;;;5114158;28;20059;-82
2022/11/04 10:32:49;;;;;;;28.75;15.77;;;11.20;99.90;;;;;;5112818;28;20483;-86
2022/11/04 10:35:24;;;;;;;24.63;15.25;;;11.20;99.90;;;;;;5113251;28;20043;-84
2022/11/04 10:37:52;;;;;;;23.60;14.30;;;11.30;99.90;;;;;;5114041;28;20047;-84
2022/11/04 10:40:35;;;;;;;24.45;14.65;;;11.70;99.90;;;;;;5113914;28;20048;-85
2022/11/04 10:43:03;;;;;;;24.67;14.65;;;11.30;99.90;;;;;;5112722;28;20039;-79
2022/11/04 10:45:52;;;;;;;26.58;15.35;;;11.30;99.90;;;;;;5113728;28;20050;-79
2022/11/04 10:48:27;;;;;;;25.52;14.77;;;11.20;99.90;;;;;;5113967;28;20070;-82
2022/11/04 10:50:55;;;;;;;25.05;15.32;;;11.70;99.90;;;;;;5113022;28;20483;-87
2022/11/04 10:53:27;;;;;;;22.40;14.73;;;11.20;99.90;;;;;;5112776;28;20059;-79
2022/11/04 10:56:17;;;;;;;25.30;15.82;;;11.30;99.90;;;;;;5112371;28;20050;-79
2022/11/04 10:58:45;;;;;;;25.50;15.27;;;11.30;99.90;;;;;;5113596;28;20039;-78
2022/11/04 11:01:30;;;;;;;24.05;13.73;;;11.40;99.90;;;;;;5113762;28;20104;-78
2022/11/04 11:03:57;;;;;;;32.13;16.10;;;11.50;99.90;;;;;;5113679;28;20039;-77
2022/11/04 11:06:32;;;;;;;30.67;14.68;;;11.50;99.90;;;;;;5113603;28;20112;-80
2022/11/04 11:09:14;;;;;;;22.05;13.73;;;11.70;99.90;;;;;;5113630;28;20041;-80
2022/11/04 11:11:44;;;;;;;23.23;14.00;;;11.70;99.90;;;;;;5113910;28;20138;-82
2022/11/04 11:14:29;;;;;;;23.85;14.75;;;11.70;99.90;;;;;;5113511;28;20086;-79
2022/11/04 11:17:14;;;;;;;18.98;13.45;;;11.70;99.90;;;;;;5116439;28;20035;-81
2022/11/04 11:19:56;;;;;;;19.38;12.60;;;11.70;99.90;;;;;;5117514;28;20044;-79
2022/11/04 11:22:40;;;;;;;22.05;12.95;;;11.70;99.90;;;;;;5117103;27;20043;-83
2022/11/04 11:25:22;;;;;;;23.60;13.80;;;11.90;99.90;;;;;;5116821;28;20047;-81
2022/11/04 11:28:09;;;;;;;20.00;11.77;;;12.00;99.90;;;;;;5117012;28;20035;-82
2022/11/04 11:30:41;;;;;;;19.60;13.18;;;12.10;99.90;;;;;;5116990;28;20407;-77
2022/11/04 11:33:26;;;;;;;19.40;11.82;;;12.10;99.90;;;;;;5116850;28;20051;-79
2022/11/04 11:35:58;;;;;;;21.25;12.93;;;12.30;99.90;;;;;;5122267;28;20091;-80
2022/11/04 11:38:27;;;;;;;20.58;11.23;;;12.40;99.90;;;;;;5099648;28;20040;-80
2022/11/04 11:41:03;;;;;;;19.55;11.77;;;12.40;99.90;;;;;;5116667;28;20040;-83
2022/11/04 11:43:32;;;;;;;19.35;11.35;;;12.40;99.90;;;;;;5116766;28;20122;-81
2022/11/04 11:45:59;;;;;;;18.30;11.10;;;12.80;99.90;;;;;;5116231;28;20510;-79
2022/11/04 11:48:42;;;;;;;21.17;11.82;;;12.40;99.90;;;;;;5116295;28;20043;-80
2022/11/04 11:51:13;;;;;;;18.73;10.52;;;12.40;99.90;;;;;;5116530;28;20044;-84
2022/11/04 11:53:55;;;;;;;18.77;11.68;;;12.20;99.90;;;;;;5116478;28;20058;-86
2022/11/04 11:56:33;;;;;;;21.08;11.55;;;12.30;99.90;;;;;;5116367;28;20055;-78
2022/11/04 11:59:27;;;;;;;15.90;11.55;;;12.30;99.90;;;;;;5116755;28;20082;-78
2022/11/04 12:02:15;;;;;;;15.05;10.88;;;12.30;99.90;;;;;;5122522;27;20085;-81
2022/11/04 12:04:41;;;;;;;14.73;9.85;;;12.20;99.90;;;;;;5135219;27;20043;-80
2022/11/04 12:07:35;;;;;;;16.75;10.55;;;12.50;99.90;;;;;;5136721;27;20050;-81
2022/11/04 12:10:19;;;;;;;17.15;11.07;;;12.40;99.90;;;;;;5121434;27;20156;-80
2022/11/04 12:12:53;;;;;;;15.98;10.10;;;12.30;99.90;;;;;;5135977;27;20156;-84
2022/11/04 12:15:32;;;;;;;15.52;9.43;;;12.30;99.90;;;;;;5136668;27;20051;-83
2022/11/04 12:18:19;;;;;;;16.17;9.45;;;12.40;99.90;;;;;;5133883;27;20044;-80
2022/11/04 12:20:51;;;;;;;16.38;11.52;;;12.40;99.90;;;;;;5136578;27;20130;-86
2022/11/04 12:23:28;;;;;;;19.58;10.43;;;12.60;99.90;;;;;;5136442;27;20088;-82
2022/11/04 12:26:17;;;;;;;15.57;9.88;;;12.50;99.90;;;;;;5136940;27;20099;-81
2022/11/04 12:29:16;;;;;;;16.65;10.18;;;12.60;99.90;;;;;;5134500;27;20134;-80
2022/11/04 12:31:48;;;;;;;16.48;10.43;;;12.50;99.90;;;;;;5136447;27;20066;-81
2022/11/04 12:34:27;;;;;;;13.85;9.15;;;12.60;99.90;;;;;;5135444;27;20054;-82
2022/11/04 12:37:56;;;;;;;14.30;9.95;;;12.40;99.90;;;;;;5136145;27;20043;-81
2022/11/04 12:40:37;;;;;;;14.30;9.53;;;12.40;99.90;;;;;;5052680;28;20049;-81
2022/11/04 12:43:27;;;;;;;13.82;8.32;;;12.40;99.90;;;;;;5052738;28;20063;-80
2022/11/04 12:46:14;;;;;;;15.90;10.10;;;12.50;99.90;;;;;;5128276;27;20121;-84
2022/11/04 12:49:00;;;;;;;13.52;9.40;;;12.60;99.90;;;;;;5134671;27;20047;-80
2022/11/04 12:51:35;;;;;;;15.93;9.48;;;12.70;99.90;;;;;;5136216;27;20111;-80
2022/11/04 12:54:01;;;;;;;14.73;8.75;;;12.80;99.90;;;;;;5135540;27;20377;-77
2022/11/04 12:56:37;;;;;;;13.50;8.25;;;12.80;99.90;;;;;;5135720;27;20039;-78
2022/11/04 12:59:36;;;;;;;16.17;8.27;;;12.80;99.90;;;;;;5135789;27;20046;-78
2022/11/04 13:02:22;;;;;;;14.57;8.73;;;12.90;99.90;;;;;;5136115;27;20039;-78
2022/11/04 13:05:17;;;;;;;14.60;8.70;;;13.10;99.90;;;;;;5135045;27;20058;-78
2022/11/04 13:08:15;;;;;;;10.18;7.15;;;13.10;99.90;;;;;;5135677;27;20118;-79
2022/11/04 13:10:44;;;;;;;5.40;2.90;;;13.10;99.90;;;;;;5103461;27;20097;-76
2022/11/04 13:13:14;;;;;;;3.33;1.30;;;12.80;99.90;;;;;;5134284;27;20130;-75
2022/11/04 13:15:47;;;;;;;1.88;1.20;;;12.70;99.90;;;;;;5135391;27;20057;-76
2022/11/04 13:18:18;;;;;;;2.22;1.15;;;12.30;99.90;;;;;;5135799;27;20483;-80
2022/11/04 13:20:49;;;;;;;4.28;1.20;;;12.00;99.90;;;;;;5135097;27;20046;-76
2022/11/04 13:23:27;;;;;;;2.17;1.10;;;11.90;99.90;;;;;;5134639;27;20039;-76
2022/11/04 13:25:55;;;;;;;3.72;1.48;;;11.70;99.90;;;;;;5134508;27;20043;-77
2022/11/04 13:28:22;;;;;;;3.17;1.55;;;11.60;99.90;;;;;;5134580;27;20077;-77
2022/11/04 13:31:06;;;;;;;4.10;1.30;;;11.40;99.90;;;;;;5134985;27;20126;-76
2022/11/04 13:33:54;;;;;;;2.90;1.23;;;11.30;99.90;;;;;;5134845;27;20043;-77
2022/11/04 13:36:32;;;;;;;4.20;1.58;;;11.20;99.90;;;;;;5134844;27;20054;-77
2022/11/04 13:39:06;;;;;;;2.65;1.15;;;11.50;99.90;;;;;;5133605;27;20043;-73
2022/11/04 13:41:38;;;;;;;3.53;1.30;;;10.90;99.90;;;;;;5134984;27;20043;-75
2022/11/04 13:44:17;;;;;;;7.28;1.48;;;10.70;99.90;;;;;;5134862;27;20047;-75